createdAt,value
2019-05-09T00:01:18.098Z,98531.89
2019-05-09T00:06:23.764Z,98522.17
2019-05-09T00:11:26.744Z,98508.30
2019-05-09T00:16:30.199Z,98509.52
2019-05-09T00:21:53.536Z,98515.84
2019-05-09T00:26:56.869Z,98507.52
2019-05-09T00:32:13.563Z,98516.47
2019-05-09T00:37:16.392Z,98536.36
2019-05-09T00:42:19.847Z,98531.58
2019-05-09T00:47:24.944Z,98530.19
2019-05-09T00:52:28.399Z,98529.42
2019-05-09T00:57:34.314Z,98530.19
2019-05-09T01:02:37.765Z,98539.91
2019-05-09T01:07:43.107Z,98532.19
2019-05-09T01:12:46.405Z,98525.90
2019-05-09T01:17:49.870Z,98524.64
2019-05-09T01:22:54.055Z,98540.39
2019-05-09T01:27:57.670Z,98541.01
2019-05-09T01:33:08.291Z,98547.34
2019-05-09T01:38:13.997Z,98550.73
2019-05-09T01:43:16.941Z,98550.56
2019-05-09T01:48:20.406Z,98547.80
2019-05-09T01:53:25.500Z,98541.01
2019-05-09T01:58:31.071Z,98539.63
2019-05-09T02:03:34.604Z,98539.63
2019-05-09T02:08:38.052Z,98523.73
2019-05-09T02:13:41.510Z,98547.95
2019-05-09T02:18:46.603Z,98543.17
2019-05-09T02:23:50.056Z,98544.41
2019-05-09T02:28:53.932Z,98553.34
2019-05-09T02:33:57.458Z,98526.98
2019-05-09T02:39:00.917Z,98525.59
2019-05-09T02:44:04.638Z,98549.80
2019-05-09T02:49:09.014Z,98557.35
2019-05-09T02:54:12.626Z,98535.30
2019-05-09T02:59:23.709Z,98544.70
2019-05-09T03:04:28.413Z,98546.87
2019-05-09T03:09:32.253Z,98542.70
2019-05-09T03:14:38.319Z,98551.19
2019-05-09T03:19:40.885Z,98555.81
2019-05-09T03:24:44.340Z,98549.03
2019-05-09T03:29:49.444Z,98539.31
2019-05-09T03:34:52.891Z,98533.77
2019-05-09T03:39:58.072Z,98550.26
2019-05-09T03:45:01.615Z,98550.26
2019-05-09T03:50:09.132Z,98549.64
2019-05-09T03:55:14.659Z,98565.52
2019-05-09T04:00:18.523Z,98551.95
2019-05-09T04:05:21.976Z,98563.52
2019-05-09T04:10:25.427Z,98581.10
2019-05-09T04:15:28.879Z,98567.69
2019-05-09T04:20:32.331Z,98571.23
2019-05-09T04:25:37.731Z,98577.86
2019-05-09T04:30:41.266Z,98580.02
2019-05-09T04:35:44.727Z,98586.95
2019-05-09T04:40:48.928Z,98590.34
2019-05-09T04:45:54.058Z,98591.58
2019-05-09T04:50:59.472Z,98590.34
2019-05-09T04:56:10.331Z,98604.07
2019-05-09T05:01:31.637Z,98608.84
2019-05-09T05:06:35.091Z,98602.68
2019-05-09T05:11:38.543Z,98610.23
2019-05-09T05:16:42.007Z,98614.40
2019-05-09T05:21:45.459Z,98615.17
2019-05-09T05:26:48.922Z,98619.20
2019-05-09T05:31:53.246Z,98624.76
2019-05-09T05:36:58.188Z,98617.05
2019-05-09T05:42:01.844Z,98625.38
2019-05-09T05:47:07.702Z,98623.21
2019-05-09T05:52:11.278Z,98631.70
2019-05-09T05:57:14.727Z,98628.77
2019-05-09T06:02:18.183Z,98632.31
2019-05-09T06:07:21.647Z,98633.70
2019-05-09T06:12:27.455Z,98619.20
2019-05-09T06:17:30.285Z,98623.37
2019-05-09T06:22:33.743Z,98626.14
2019-05-09T06:27:37.635Z,98635.86
2019-05-09T06:32:41.145Z,98633.09
2019-05-09T06:37:44.598Z,98627.53
2019-05-09T06:42:48.992Z,98637.37
2019-05-09T06:47:52.487Z,98638.15
2019-05-09T06:52:57.306Z,98642.47
2019-05-09T06:58:02.521Z,98645.24
2019-05-09T07:03:10.638Z,98636.45
2019-05-09T07:08:15.735Z,98626.90
2019-05-09T07:13:19.206Z,98633.38
2019-05-09T07:18:22.656Z,98636.28
2019-05-09T07:23:28.057Z,98641.53
2019-05-09T07:28:31.302Z,98641.25
2019-05-09T07:33:41.995Z,98634.59
2019-05-09T07:38:47.617Z,98640.57
2019-05-09T07:43:50.645Z,98633.48
2019-05-09T07:48:57.754Z,98631.34
2019-05-09T07:54:00.664Z,98632.87
2019-05-09T07:59:04.122Z,98637.80
2019-05-09T08:04:07.745Z,98644.09
2019-05-09T08:09:11.211Z,98633.45
2019-05-09T08:14:14.668Z,98635.03
2019-05-09T08:19:18.220Z,98642.89
2019-05-09T08:24:21.656Z,98647.50
2019-05-09T08:29:25.119Z,98642.14
2019-05-09T08:34:28.630Z,98642.45
2019-05-09T08:39:32.043Z,98649.70
2019-05-09T08:44:37.756Z,98652.17
2019-05-09T08:49:49.623Z,98650.48
2019-05-09T08:54:54.811Z,98643.69
2019-05-09T08:59:59.072Z,98652.32
2019-05-09T09:05:02.823Z,98650.98
2019-05-09T09:10:08.421Z,98646.64
2019-05-09T09:15:11.874Z,98642.64
2019-05-09T09:20:18.007Z,98651.41
2019-05-09T09:25:20.594Z,98662.05
2019-05-09T09:30:25.205Z,98647.11
2019-05-09T09:35:28.964Z,98648.34
2019-05-09T09:40:32.424Z,98647.09
2019-05-09T09:45:37.799Z,98642.94
2019-05-09T09:50:41.072Z,98635.68
2019-05-09T09:55:44.529Z,98635.20
2019-05-09T10:00:51.261Z,98643.23
2019-05-09T10:05:54.723Z,98634.56
2019-05-09T10:10:59.127Z,98637.20
2019-05-09T10:16:04.292Z,98631.92
2019-05-09T10:21:15.053Z,98627.30
2019-05-09T10:26:18.523Z,98626.84
2019-05-09T10:31:21.981Z,98616.20
2019-05-09T10:36:27.654Z,98623.58
2019-05-09T10:41:30.623Z,98623.73
2019-05-09T10:46:57.282Z,98612.94
2019-05-09T10:51:58.049Z,98620.80
2019-05-09T10:57:01.358Z,98620.93
2019-05-09T11:02:04.811Z,98607.97
2019-05-09T11:07:08.336Z,98608.28
2019-05-09T11:12:11.791Z,98602.88
2019-05-09T11:17:19.306Z,98600.88
2019-05-09T11:22:23.445Z,98604.70
2019-05-09T11:27:28.122Z,98595.75
2019-05-09T11:32:30.883Z,98602.23
2019-05-09T11:37:34.342Z,98600.38
2019-05-09T11:42:38.232Z,98601.77
2019-05-09T11:47:46.186Z,98606.25
2019-05-09T11:52:49.060Z,98602.98
2019-05-09T11:57:52.369Z,98600.97
2019-05-09T12:02:58.166Z,98590.66
2019-05-09T12:08:01.011Z,98593.75
2019-05-09T12:13:04.474Z,98596.83
2019-05-09T12:18:11.323Z,98592.66
2019-05-09T12:23:13.183Z,98584.64
2019-05-09T12:28:18.923Z,98590.66
2019-05-09T12:33:21.826Z,98591.71
2019-05-09T12:38:27.083Z,98591.86
2019-05-09T12:43:30.489Z,98592.32
2019-05-09T12:48:33.950Z,98591.09
2019-05-09T12:53:39.625Z,98591.98
2019-05-09T12:58:42.591Z,98587.97
2019-05-09T13:03:48.253Z,98591.67
2019-05-09T13:08:51.246Z,98586.11
2019-05-09T13:13:54.723Z,98584.73
2019-05-09T13:19:02.809Z,98580.56
2019-05-09T13:24:08.318Z,98581.80
2019-05-09T13:29:11.616Z,98576.70
2019-05-09T13:34:15.076Z,98584.42
2019-05-09T13:39:18.613Z,98581.80
2019-05-09T13:44:22.076Z,98570.06
2019-05-09T13:49:25.517Z,98575.92
2019-05-09T13:54:28.984Z,98577.74
2019-05-09T13:59:32.441Z,98571.56
2019-05-09T14:04:39.160Z,98567.70
2019-05-09T14:09:41.115Z,98574.66
2019-05-09T14:14:45.337Z,98575.89
2019-05-09T14:19:51.006Z,98572.49
2019-05-09T14:24:53.967Z,98569.56
2019-05-09T14:29:59.280Z,98581.45
2019-05-09T14:35:03.109Z,98582.22
2019-05-09T14:40:10.089Z,98587.62
2019-05-09T14:45:11.886Z,98586.23
2019-05-09T14:50:17.906Z,98581.75
2019-05-09T14:55:20.751Z,98576.66
2019-05-09T15:00:24.446Z,98583.11
2019-05-09T15:05:28.058Z,98579.70
2019-05-09T15:10:31.547Z,98590.21
2019-05-09T15:15:35.011Z,98583.41
2019-05-09T15:20:38.460Z,98582.80
2019-05-09T15:25:41.928Z,98578.01
2019-05-09T15:30:48.750Z,98573.22
2019-05-09T15:35:50.580Z,98575.38
2019-05-09T15:40:54.079Z,98571.21
2019-05-09T15:46:02.036Z,98578.63
2019-05-09T15:51:07.510Z,98576.93
2019-05-09T15:56:10.693Z,98576.93
2019-05-09T16:01:14.153Z,98577.55
2019-05-09T16:06:19.892Z,98572.77
2019-05-09T16:11:22.817Z,98569.21
2019-05-09T16:16:28.621Z,98575.54
2019-05-09T16:21:31.467Z,98571.22
2019-05-09T16:26:34.926Z,98567.83
2019-05-09T16:31:38.979Z,98567.83
2019-05-09T16:36:42.532Z,98569.98
2019-05-09T16:41:48.484Z,98577.20
2019-05-09T16:46:51.615Z,98576.58
2019-05-09T16:51:55.071Z,98573.95
2019-05-09T16:57:00.013Z,98578.13
2019-05-09T17:02:17.781Z,98583.83
2019-05-09T17:07:08.932Z,98585.22
2019-05-09T17:12:12.656Z,98590.48
2019-05-09T17:17:17.807Z,98598.54
2019-05-09T17:22:27.267Z,98602.71
2019-05-09T17:27:30.704Z,98610.28
2019-05-09T17:32:34.699Z,98600.86
2019-05-09T17:37:38.176Z,98607.50
2019-05-09T17:42:41.817Z,98614.30
2019-05-09T17:47:45.279Z,98613.25
2019-05-09T17:52:48.732Z,98618.66
2019-05-09T17:57:52.203Z,98625.30
2019-05-09T18:02:57.861Z,98628.84
2019-05-09T18:08:00.847Z,98629.93
2019-05-09T18:13:04.371Z,98636.59
2019-05-09T18:18:07.901Z,98642.16
2019-05-09T18:23:11.350Z,98637.49
2019-05-09T18:28:14.877Z,98637.83
2019-05-09T18:33:22.779Z,98646.02
2019-05-09T18:38:32.012Z,98649.41
2019-05-09T18:43:35.473Z,98655.28
2019-05-09T18:48:39.104Z,98653.11
2019-05-09T18:53:42.566Z,98656.66
2019-05-09T18:58:46.094Z,98669.17
2019-05-09T19:03:49.552Z,98673.67
2019-05-09T19:08:53.029Z,98684.95
2019-05-09T19:13:57.247Z,98686.18
2019-05-09T19:19:18.524Z,98690.97
2019-05-09T19:24:21.988Z,98701.92
2019-05-09T19:29:25.531Z,98701.16
2019-05-09T19:34:28.990Z,98709.33
2019-05-09T19:39:32.454Z,98705.16
2019-05-09T19:44:35.940Z,98709.17
2019-05-09T19:49:39.422Z,98724.00
2019-05-09T19:54:42.898Z,98717.51
2019-05-09T19:59:46.382Z,98730.79
2019-05-09T20:04:49.846Z,98730.63
2019-05-09T20:09:55.135Z,98732.02
2019-05-09T20:14:58.616Z,98736.03
2019-05-09T20:20:02.159Z,98734.52
2019-05-09T20:25:08.859Z,98742.08
2019-05-09T20:30:12.891Z,98740.69
2019-05-09T20:35:16.348Z,98746.09
2019-05-09T20:40:20.008Z,98752.42
2019-05-09T20:45:23.694Z,98752.27
2019-05-09T20:50:27.346Z,98755.05
2019-05-09T20:55:30.991Z,98759.98
2019-05-09T21:00:34.632Z,98768.77
2019-05-09T21:05:38.278Z,98768.16
2019-05-09T21:10:41.916Z,98775.11
2019-05-09T21:15:45.554Z,98782.66
2019-05-09T21:20:49.198Z,98794.55
2019-05-09T21:25:52.835Z,98796.41
2019-05-09T21:30:56.474Z,98793.01
2019-05-09T21:35:59.929Z,98796.56
2019-05-09T21:41:03.387Z,98797.17
2019-05-09T21:46:06.843Z,98797.17
2019-05-09T21:51:10.303Z,98800.57
2019-05-09T21:56:13.758Z,98804.73
2019-05-09T22:01:18.941Z,98818.63
2019-05-09T22:06:22.490Z,98815.84
2019-05-09T22:11:25.949Z,98822.80
2019-05-09T22:16:29.418Z,98824.02
2019-05-09T22:21:32.883Z,98835.30
2019-05-09T22:26:36.369Z,98845.64
2019-05-09T22:31:39.845Z,98849.03
2019-05-09T22:36:43.327Z,98849.80
2019-05-09T22:41:46.812Z,98857.52
2019-05-09T22:46:50.281Z,98849.19
2019-05-09T22:51:53.749Z,98860.92
2019-05-09T22:56:57.228Z,98856.75
2019-05-09T23:02:06.536Z,98857.52
2019-05-09T23:07:05.944Z,98861.53
2019-05-09T23:12:09.455Z,98865.70
2019-05-09T23:17:12.931Z,98864.31
2019-05-09T23:22:16.482Z,98863.50
2019-05-09T23:27:20.325Z,98868.48
2019-05-09T23:32:25.442Z,98869.06
2019-05-09T23:37:28.917Z,98859.95
2019-05-09T23:42:32.387Z,98868.29
2019-05-09T23:47:35.859Z,98876.62
2019-05-09T23:52:39.328Z,98876.02
2019-05-09T23:58:00.593Z,98876.50
